Time;durP1;ratioP1;P1;durP2;ratioP2;P2;SDS_P1;SDS_P2;PMS_P1;PMS_P2;Temp;Humidity;BMP_temperature;BMP_pressure;BME280_temperature;BME280_humidity;BME280_pressure;Samples;Min_cycle;Max_cycle;Signal;HPM_P1;HPM_P2
2023/02/08 00:01:40;;;;;;;2.65;2.45;;;-8.20;99.90;;;;;;8232943;28;20403;-78
2023/02/08 00:05:40;;;;;;;3.92;2.53;;;-8.00;99.90;;;;;;8233061;28;20078;-78
2023/02/08 00:09:41;;;;;;;4.18;2.45;;;-7.70;99.90;;;;;;8234255;28;20504;-78
2023/02/08 00:13:41;;;;;;;3.83;1.92;;;-7.80;99.90;;;;;;8233360;28;20066;-78
2023/02/08 00:17:42;;;;;;;4.85;3.35;;;-7.90;99.90;;;;;;8232948;28;20118;-78
2023/02/08 00:21:42;;;;;;;2.45;1.83;;;-8.20;99.90;;;;;;8232366;28;20110;-77
2023/02/08 00:25:43;;;;;;;4.57;2.55;;;-8.30;99.90;;;;;;8232533;28;20019;-78
2023/02/08 00:29:44;;;;;;;4.10;2.45;;;-8.40;99.90;;;;;;8231532;28;20030;-77
2023/02/08 00:33:44;;;;;;;2.75;2.17;;;-8.40;99.90;;;;;;8231022;28;20109;-77
2023/02/08 00:37:45;;;;;;;2.80;2.13;;;-8.40;99.90;;;;;;8231203;28;20030;-78
2023/02/08 00:41:46;;;;;;;3.50;2.53;;;-8.50;99.90;;;;;;8232556;28;20026;-78
2023/02/08 00:45:46;;;;;;;5.38;2.40;;;-8.40;99.90;;;;;;8231375;28;20029;-77
2023/02/08 00:49:47;;;;;;;4.45;2.40;;;-8.30;99.90;;;;;;8231279;28;20423;-78
2023/02/08 00:53:47;;;;;;;6.72;1.90;;;-8.20;99.90;;;;;;8231877;28;20419;-78
2023/02/08 00:57:48;;;;;;;5.47;2.50;;;-8.10;99.90;;;;;;8232655;28;20042;-77
2023/02/08 01:01:48;;;;;;;9.18;2.22;;;-8.30;99.90;;;;;;8231868;28;20403;-78
2023/02/08 01:05:49;;;;;;;2.65;1.50;;;-8.20;99.90;;;;;;8231780;28;20058;-77
2023/02/08 01:09:49;;;;;;;3.83;1.85;;;-8.10;99.90;;;;;;8232642;28;20431;-77
2023/02/08 01:13:53;;;;;;;5.10;2.30;;;-8.20;99.90;;;;;;8232535;28;20058;-78
2023/02/08 01:17:54;;;;;;;6.22;2.28;;;-8.20;99.90;;;;;;8231115;28;20035;-78
2023/02/08 01:21:55;;;;;;;2.95;1.23;;;-8.30;99.90;;;;;;8230357;28;20039;-78
2023/02/08 01:25:55;;;;;;;7.63;2.78;;;-8.40;99.90;;;;;;8232391;28;20628;-78
2023/02/08 01:29:56;;;;;;;3.75;2.47;;;-8.50;99.90;;;;;;8230854;28;20030;-78
2023/02/08 01:33:57;;;;;;;3.55;1.35;;;-8.50;99.90;;;;;;8231329;28;20089;-77
2023/02/08 01:37:58;;;;;;;4.10;2.80;;;-8.50;99.90;;;;;;8230416;28;20093;-77
2023/02/08 01:41:58;;;;;;;6.93;2.25;;;-8.70;99.90;;;;;;8230777;28;20026;-78
2023/02/08 01:45:59;;;;;;;5.60;2.90;;;-8.70;99.90;;;;;;8229731;28;20120;-78
2023/02/08 01:50:00;;;;;;;4.22;2.70;;;-8.80;99.90;;;;;;8224826;28;20023;-78
2023/02/08 01:54:02;;;;;;;4.97;3.05;;;-8.70;99.90;;;;;;8230621;28;20022;-78
2023/02/08 01:58:08;;;;;;;3.50;3.20;;;-8.90;99.90;;;;;;8231764;28;20033;-78
2023/02/08 02:02:12;;;;;;;3.17;1.33;;;-8.80;99.90;;;;;;8231260;28;20114;-78
2023/02/08 02:06:17;;;;;;;4.40;1.88;;;-8.90;99.90;;;;;;8231118;28;20027;-78
2023/02/08 02:10:19;;;;;;;2.70;2.20;;;-8.70;99.90;;;;;;8229045;28;20048;-78
2023/02/08 02:14:21;;;;;;;3.90;1.73;;;-8.60;99.90;;;;;;8230262;28;20022;-77
2023/02/08 02:18:28;;;;;;;3.22;2.17;;;-8.70;99.90;;;;;;8228954;28;20023;-78
2023/02/08 02:22:31;;;;;;;7.47;1.95;;;-8.80;99.90;;;;;;8221670;28;20483;-78
2023/02/08 02:26:50;;;;;;;3.70;2.10;;;-8.90;99.90;;;;;;8229217;28;20034;-77
2023/02/08 02:30:56;;;;;;;5.55;1.58;;;-8.90;99.90;;;;;;8229951;28;20027;-79
2023/02/08 02:35:20;;;;;;;5.65;2.30;;;-8.90;99.90;;;;;;8230169;28;20507;-78
2023/02/08 02:40:02;;;;;;;3.05;1.52;;;-9.00;99.90;;;;;;8227976;28;20395;-78
2023/02/08 02:44:09;;;;;;;2.30;1.95;;;-8.90;99.90;;;;;;8225827;28;20488;-78
2023/02/08 02:48:15;;;;;;;3.42;2.35;;;-8.80;99.90;;;;;;8229905;28;20062;-78
2023/02/08 02:52:22;;;;;;;2.45;1.17;;;-8.80;99.90;;;;;;8230456;28;20030;-78
2023/02/08 02:56:39;;;;;;;6.28;2.15;;;-8.90;99.90;;;;;;8229274;28;20122;-77
2023/02/08 03:00:40;;;;;;;1.83;1.65;;;-9.00;99.90;;;;;;8229064;28;20027;-78
2023/02/08 03:04:40;;;;;;;3.33;2.63;;;-9.00;99.90;;;;;;8228716;28;20074;-78
2023/02/08 03:09:01;;;;;;;6.45;2.78;;;-8.90;99.90;;;;;;8228366;28;20483;-77
2023/02/08 03:13:30;;;;;;;4.18;1.58;;;-9.00;99.90;;;;;;8229036;28;20039;-77
2023/02/08 03:17:53;;;;;;;4.85;1.95;;;-8.90;99.90;;;;;;8228287;28;20407;-78
2023/02/08 03:22:08;;;;;;;2.78;1.70;;;-9.00;99.90;;;;;;8229996;28;20388;-78
2023/02/08 03:26:27;;;;;;;4.60;1.55;;;-9.10;99.90;;;;;;8229552;28;20077;-78
2023/02/08 03:30:43;;;;;;;1.50;1.40;;;-9.30;99.90;;;;;;8234907;28;20165;-80
2023/02/08 03:35:01;;;;;;;3.17;1.77;;;-9.20;99.90;;;;;;8232834;28;20027;-79
2023/02/08 03:39:06;;;;;;;3.65;3.28;;;-9.20;99.90;;;;;;8234978;28;20562;-80
2023/02/08 03:43:19;;;;;;;1.75;1.65;;;-9.30;99.90;;;;;;8235925;28;20031;-78
2023/02/08 03:47:27;;;;;;;1.60;1.48;;;-9.20;99.90;;;;;;8234544;28;20372;-77
2023/02/08 03:51:29;;;;;;;4.25;3.10;;;-9.20;99.90;;;;;;8234908;28;20019;-78
2023/02/08 03:55:34;;;;;;;2.60;1.80;;;-9.20;99.90;;;;;;8235135;28;20069;-78
2023/02/08 03:59:38;;;;;;;7.50;3.83;;;-8.90;99.90;;;;;;8234999;28;20479;-78
2023/02/08 04:03:40;;;;;;;5.85;1.75;;;-8.60;99.90;;;;;;8233354;28;20023;-78
2023/02/08 04:07:40;;;;;;;1.10;1.00;;;-8.50;99.90;;;;;;8233540;28;20030;-78
2023/02/08 04:11:41;;;;;;;4.47;2.00;;;-8.60;99.90;;;;;;8229112;28;20509;-78
2023/02/08 04:15:43;;;;;;;2.42;1.75;;;-8.70;99.90;;;;;;8233895;28;20027;-78
2023/02/08 04:19:43;;;;;;;1.38;1.27;;;-8.80;99.90;;;;;;8234782;28;20492;-78
2023/02/08 04:23:44;;;;;;;1.85;1.52;;;-9.00;99.90;;;;;;8234265;28;20061;-78
2023/02/08 04:27:44;;;;;;;2.08;1.35;;;-9.10;99.90;;;;;;8232585;28;20019;-77
2023/02/08 04:31:45;;;;;;;2.25;1.60;;;-8.80;99.90;;;;;;8234163;28;20054;-78
2023/02/08 04:35:45;;;;;;;4.65;2.75;;;-8.70;99.90;;;;;;8233750;28;20593;-78
2023/02/08 04:39:46;;;;;;;4.85;1.35;;;-8.80;99.90;;;;;;8235065;28;20042;-78
2023/02/08 04:43:46;;;;;;;6.93;3.30;;;-8.60;99.90;;;;;;8232696;28;20464;-78
2023/02/08 04:47:47;;;;;;;4.22;2.05;;;-8.50;99.90;;;;;;8233476;28;20019;-76
2023/02/08 04:51:47;;;;;;;3.15;2.58;;;-8.40;99.90;;;;;;8231108;28;20059;-77
2023/02/08 04:55:48;;;;;;;3.22;1.73;;;-8.40;99.90;;;;;;8231234;28;20463;-77
2023/02/08 04:59:48;;;;;;;5.45;3.28;;;-8.50;99.90;;;;;;8230647;28;20500;-77
2023/02/08 05:03:49;;;;;;;3.17;2.15;;;-8.50;99.90;;;;;;8226690;28;20041;-77
2023/02/08 05:07:50;;;;;;;1.77;1.67;;;-8.50;99.90;;;;;;8224522;28;20031;-78
2023/02/08 05:11:51;;;;;;;7.72;3.28;;;-8.60;99.90;;;;;;8226319;28;20030;-77
2023/02/08 05:15:51;;;;;;;6.88;2.70;;;-8.30;99.90;;;;;;8230345;28;20023;-79
2023/02/08 05:19:52;;;;;;;5.38;3.60;;;-8.10;99.90;;;;;;8230957;28;20304;-77
2023/02/08 05:23:52;;;;;;;5.97;3.15;;;-8.20;99.90;;;;;;8229844;28;20015;-78
2023/02/08 05:27:53;;;;;;;3.45;1.25;;;-8.20;99.90;;;;;;8231509;28;20031;-77
2023/02/08 05:31:53;;;;;;;3.33;2.30;;;-8.10;99.90;;;;;;8230736;28;20026;-77
2023/02/08 05:35:54;;;;;;;4.05;2.20;;;-8.40;99.90;;;;;;8229877;28;20035;-78
2023/02/08 05:39:54;;;;;;;2.75;2.55;;;-8.50;99.90;;;;;;8231665;28;20085;-77
2023/02/08 05:43:55;;;;;;;2.40;2.20;;;-8.30;99.90;;;;;;8231391;28;20457;-78
2023/02/08 05:47:56;;;;;;;2.58;2.38;;;-8.10;99.90;;;;;;8229825;28;20495;-77
2023/02/08 05:51:56;;;;;;;4.22;2.35;;;-8.10;99.90;;;;;;8231718;28;20034;-77
2023/02/08 05:55:57;;;;;;;3.38;1.98;;;-8.10;99.90;;;;;;8230544;28;20025;-77
2023/02/08 05:59:58;;;;;;;6.07;3.08;;;-8.20;99.90;;;;;;8231569;28;20111;-76
2023/02/08 06:03:59;;;;;;;4.22;2.95;;;-8.40;99.90;;;;;;8229826;28;20023;-78
2023/02/08 06:07:59;;;;;;;2.63;2.30;;;-8.30;99.90;;;;;;8230406;28;20029;-78
2023/02/08 06:12:00;;;;;;;7.38;3.10;;;-8.50;99.90;;;;;;8229821;28;20058;-78
2023/02/08 06:16:01;;;;;;;4.13;1.98;;;-8.80;99.90;;;;;;8229299;28;20038;-78
2023/02/08 06:20:01;;;;;;;3.10;2.10;;;-8.70;99.90;;;;;;8229603;28;20130;-78
2023/02/08 06:24:02;;;;;;;7.25;2.85;;;-8.70;99.90;;;;;;8226418;28;20038;-78
2023/02/08 06:28:03;;;;;;;4.60;3.17;;;-9.00;99.90;;;;;;8230928;28;20026;-77
2023/02/08 06:32:04;;;;;;;7.40;3.00;;;-9.20;99.90;;;;;;8230818;28;20110;-78
2023/02/08 06:36:05;;;;;;;4.97;2.67;;;-9.30;99.90;;;;;;8229025;28;20495;-78
2023/02/08 06:40:06;;;;;;;5.25;2.80;;;-9.30;99.90;;;;;;8229667;28;20553;-78
2023/02/08 06:44:07;;;;;;;7.15;3.13;;;-9.20;99.90;;;;;;8229926;28;20034;-78
2023/02/08 06:48:07;;;;;;;7.60;2.67;;;-9.30;99.90;;;;;;8229134;28;20398;-78
2023/02/08 06:52:08;;;;;;;6.55;3.08;;;-9.40;99.90;;;;;;8230078;28;20500;-77
2023/02/08 06:56:08;;;;;;;6.78;2.88;;;-9.40;99.90;;;;;;8229178;28;20027;-78
2023/02/08 07:00:10;;;;;;;5.88;4.35;;;-9.20;99.90;;;;;;8233158;28;20026;-78
2023/02/08 07:04:10;;;;;;;2.88;2.40;;;-9.10;99.90;;;;;;8235332;28;20038;-77
2023/02/08 07:08:11;;;;;;;3.83;3.38;;;-9.00;99.90;;;;;;8236726;28;20502;-78
2023/02/08 07:12:12;;;;;;;4.20;2.45;;;-8.80;99.90;;;;;;8235130;28;20034;-78
2023/02/08 07:16:12;;;;;;;8.50;3.70;;;-8.70;99.90;;;;;;8233900;28;20026;-79
2023/02/08 07:20:13;;;;;;;5.63;3.67;;;-8.30;99.90;;;;;;8235183;28;20034;-77
2023/02/08 07:24:14;;;;;;;10.00;2.47;;;-8.10;99.90;;;;;;8234942;28;20073;-78
2023/02/08 07:28:14;;;;;;;4.35;2.47;;;-8.00;99.90;;;;;;8234798;28;20026;-78
2023/02/08 07:32:15;;;;;;;11.38;3.40;;;-8.00;99.90;;;;;;8236219;28;20617;-78
2023/02/08 07:36:15;;;;;;;5.88;3.17;;;-7.90;99.90;;;;;;8235833;28;20110;-78
2023/02/08 07:40:16;;;;;;;5.75;3.63;;;-8.00;99.90;;;;;;8236323;28;20093;-78
2023/02/08 07:44:17;;;;;;;9.20;4.53;;;-7.50;99.90;;;;;;8235186;28;20033;-78
2023/02/08 07:48:17;;;;;;;4.85;2.97;;;-7.40;99.90;;;;;;8235971;28;20030;-77
2023/02/08 07:52:18;;;;;;;2.25;0.85;;;-7.10;99.90;;;;;;8235287;28;20086;-78
2023/02/08 07:56:19;;;;;;;2.88;1.77;;;-6.80;99.90;;;;;;8235591;28;20030;-78
2023/02/08 08:00:19;;;;;;;5.45;2.95;;;-6.60;99.90;;;;;;8234015;28;20030;-78
2023/02/08 08:04:20;;;;;;;0.85;0.85;;;-6.50;99.90;;;;;;8230881;28;20070;-78
2023/02/08 08:08:21;;;;;;;12.50;4.10;;;-6.30;99.90;;;;;;8233605;28;20034;-77
2023/02/08 08:12:23;;;;;;;6.32;3.35;;;-6.20;99.90;;;;;;8234297;28;20063;-77
2023/02/08 08:16:23;;;;;;;6.57;2.38;;;-6.00;99.90;;;;;;8233983;28;20022;-77
2023/02/08 08:20:24;;;;;;;1.80;0.85;;;-5.90;99.90;;;;;;8233778;28;20063;-76
2023/02/08 08:24:25;;;;;;;10.38;4.63;;;-5.80;99.90;;;;;;8234041;28;20022;-77
2023/02/08 08:28:25;;;;;;;6.22;3.00;;;-5.60;99.90;;;;;;8233205;28;20031;-77
2023/02/08 08:32:26;;;;;;;2.30;0.68;;;-5.50;99.90;;;;;;8234323;28;20018;-77
2023/02/08 08:36:27;;;;;;;9.32;5.32;;;-5.40;99.90;;;;;;8233185;28;20436;-77
2023/02/08 08:40:27;;;;;;;3.28;2.95;;;-5.20;99.90;;;;;;8234058;28;20031;-78
2023/02/08 08:44:28;;;;;;;13.13;3.38;;;-5.20;99.90;;;;;;8232705;28;20527;-77
2023/02/08 08:48:29;;;;;;;4.43;2.58;;;-5.00;99.90;;;;;;8234584;28;20034;-78
2023/02/08 08:52:30;;;;;;;17.80;7.55;;;-4.90;99.90;;;;;;8232905;28;20607;-77
2023/02/08 08:56:31;;;;;;;3.88;3.35;;;-4.70;99.90;;;;;;8229116;28;20062;-77
2023/02/08 09:00:31;;;;;;;15.27;6.97;;;-4.60;99.90;;;;;;8233273;28;20023;-78
2023/02/08 09:04:32;;;;;;;2.17;0.93;;;-4.50;99.90;;;;;;8232920;28;20019;-78
2023/02/08 09:08:33;;;;;;;5.75;3.10;;;-4.40;99.90;;;;;;8233078;28;20045;-78
2023/02/08 09:12:34;;;;;;;9.88;5.60;;;-4.20;99.90;;;;;;8233947;28;20023;-78
2023/02/08 09:16:35;;;;;;;9.90;4.20;;;-4.10;99.90;;;;;;8232416;28;20158;-78
2023/02/08 09:20:38;;;;;;;13.18;5.22;;;-4.00;99.90;;;;;;8232946;28;20038;-78
2023/02/08 09:24:38;;;;;;;3.40;1.48;;;-3.80;99.90;;;;;;8231619;28;20030;-78
2023/02/08 09:28:39;;;;;;;5.47;3.38;;;-3.60;99.90;;;;;;8232618;28;20119;-78
2023/02/08 09:32:40;;;;;;;8.27;4.82;;;-3.50;99.90;;;;;;8231842;28;20061;-78
2023/02/08 09:36:40;;;;;;;6.10;2.95;;;-3.10;99.90;;;;;;8231711;28;20023;-78
2023/02/08 09:40:57;;;;;;;9.85;5.03;;;-2.80;99.90;;;;;;8233030;28;20462;-78
2023/02/08 09:45:22;;;;;;;8.38;5.00;;;-2.50;99.90;;;;;;8233058;28;20018;-78
2023/02/08 09:49:29;;;;;;;7.57;3.63;;;-2.30;99.90;;;;;;8231543;28;20983;-78
2023/02/08 09:53:35;;;;;;;5.07;2.88;;;-2.10;99.90;;;;;;8231944;28;20399;-80
2023/02/08 09:57:37;;;;;;;14.50;5.43;;;-1.90;99.90;;;;;;8228877;28;20018;-80
2023/02/08 10:01:38;;;;;;;7.90;2.88;;;-1.70;99.90;;;;;;8231918;28;20027;-80
2023/02/08 10:05:38;;;;;;;7.20;4.10;;;-1.40;99.90;;;;;;8230099;28;20027;-79
2023/02/08 10:09:39;;;;;;;2.80;2.03;;;-1.30;99.90;;;;;;8230212;28;20050;-79
2023/02/08 10:14:07;;;;;;;2.22;1.60;;;-1.20;99.90;;;;;;8226982;28;20027;-79
2023/02/08 10:18:37;;;;;;;8.60;4.35;;;-1.10;99.90;;;;;;8244554;28;20033;-80
2023/02/08 10:23:16;;;;;;;11.90;3.63;;;-1.00;99.90;;;;;;8226662;28;20042;-80
2023/02/08 10:27:28;;;;;;;8.70;4.68;;;-0.10;99.90;;;;;;8230227;28;20404;-79
2023/02/08 10:32:06;;;;;;;7.70;3.58;;;-0.20;99.90;;;;;;8231408;28;20040;-79
2023/02/08 10:36:15;;;;;;;4.80;2.28;;;-0.30;99.90;;;;;;8229794;28;20022;-80
2023/02/08 10:40:24;;;;;;;9.93;3.77;;;0.10;99.90;;;;;;8229370;28;20101;-80
2023/02/08 10:44:49;;;;;;;;;;;-0.30;99.90;;;;;;8230265;28;20390;-79
2023/02/08 10:49:04;;;;;;;5.00;2.55;;;-0.30;99.90;;;;;;8227469;28;19906;-78
2023/02/08 10:53:05;;;;;;;7.03;3.45;;;-0.30;99.90;;;;;;8228845;28;20073;-79
2023/02/08 10:57:26;;;;;;;7.03;2.92;;;-0.20;99.90;;;;;;8228354;28;20483;-79
2023/02/08 11:01:27;;;;;;;7.80;3.67;;;-0.10;99.90;;;;;;8230016;28;20029;-80
2023/02/08 11:05:35;;;;;;;9.65;5.05;;;-0.20;99.90;;;;;;8224932;28;20507;-79
2023/02/08 11:09:36;;;;;;;7.18;3.08;;;-0.10;99.90;;;;;;8220909;28;20392;-80
2023/02/08 11:13:42;;;;;;;7.20;3.75;;;0.00;99.90;;;;;;8228243;28;20113;-80
2023/02/08 11:17:43;;;;;;;4.97;1.48;;;0.50;99.90;;;;;;8228414;28;20049;-79
2023/02/08 11:21:49;;;;;;;11.00;3.88;;;1.30;99.90;;;;;;8228451;28;20054;-80
2023/02/08 11:25:51;;;;;;;7.40;3.20;;;1.30;99.90;;;;;;8228185;28;20023;-79
2023/02/08 11:30:12;;;;;;;8.68;3.42;;;1.60;99.90;;;;;;8229773;28;20034;-80
2023/02/08 11:34:13;;;;;;;9.55;3.03;;;1.50;99.90;;;;;;8227993;28;20034;-80
2023/02/08 11:38:18;;;;;;;6.85;3.05;;;1.30;99.90;;;;;;8227517;28;20423;-79
2023/02/08 11:42:35;;;;;;;7.05;2.78;;;1.50;99.90;;;;;;8227746;28;20055;-80
2023/02/08 11:46:38;;;;;;;8.07;3.88;;;2.70;99.90;;;;;;8229455;28;20590;-77
2023/02/08 11:50:38;;;;;;;14.90;5.00;;;2.10;99.90;;;;;;8232608;28;20526;-77
2023/02/08 11:54:40;;;;;;;9.85;4.50;;;1.60;99.90;;;;;;8233913;28;20026;-78
2023/02/08 11:58:53;;;;;;;5.28;3.25;;;2.20;99.90;;;;;;8233083;28;20030;-78
2023/02/08 12:03:14;;;;;;;3.28;2.05;;;2.50;99.90;;;;;;8231696;28;20022;-77
2023/02/08 12:07:31;;;;;;;7.15;3.08;;;2.60;99.90;;;;;;8229716;28;20034;-77
2023/02/08 12:11:42;;;;;;;5.72;2.78;;;2.60;99.90;;;;;;8227389;28;20085;-77
2023/02/08 12:15:51;;;;;;;5.45;2.80;;;3.00;99.90;;;;;;8231855;28;20177;-77
2023/02/08 12:20:07;;;;;;;10.68;4.95;;;3.50;99.90;;;;;;8231976;28;20050;-77
2023/02/08 12:24:33;;;;;;;7.47;3.78;;;4.30;99.90;;;;;;8229178;28;20015;-77
2023/02/08 12:29:10;;;;;;;6.45;3.08;;;4.40;99.90;;;;;;8227754;28;20403;-77
2023/02/08 12:33:28;;;;;;;10.30;4.90;;;4.90;99.90;;;;;;8230701;28;20022;-77
2023/02/08 12:42:19;;;;;;;5.78;2.67;;;4.90;99.90;;;;;;8229664;28;20029;-77
2023/02/08 12:46:57;;;;;;;7.15;3.10;;;2.20;99.90;;;;;;8229316;28;20038;-78
2023/02/08 12:51:03;;;;;;;5.78;3.40;;;1.10;99.90;;;;;;8231061;28;20162;-77
2023/02/08 12:55:24;;;;;;;9.35;4.65;;;0.80;99.90;;;;;;8232294;28;20023;-78
2023/02/08 12:59:37;;;;;;;6.28;2.55;;;0.50;99.90;;;;;;8232235;28;20026;-80
2023/02/08 13:03:47;;;;;;;6.50;2.92;;;0.50;99.90;;;;;;8227946;28;20045;-79
2023/02/08 13:07:55;;;;;;;8.07;3.50;;;0.50;99.90;;;;;;8229559;28;20065;-79
2023/02/08 13:12:17;;;;;;;7.30;3.55;;;0.60;99.90;;;;;;8232456;28;20062;-79
2023/02/08 13:16:22;;;;;;;3.58;2.42;;;0.50;99.90;;;;;;8230998;28;20057;-80
2023/02/08 13:20:33;;;;;;;9.25;3.63;;;0.40;99.90;;;;;;8234113;28;20034;-80
2023/02/08 13:24:38;;;;;;;5.32;2.88;;;0.30;99.90;;;;;;8245026;28;20476;-79
2023/02/08 13:28:40;;;;;;;7.57;3.95;;;0.30;99.90;;;;;;8233211;28;20046;-79
2023/02/08 13:32:43;;;;;;;7.65;3.50;;;0.40;99.90;;;;;;8232811;28;20033;-79
2023/02/08 13:36:58;;;;;;;8.88;3.60;;;0.50;99.90;;;;;;8231871;28;20026;-78
2023/02/08 13:41:16;;;;;;;8.88;3.13;;;0.60;99.90;;;;;;8227214;28;20086;-78
2023/02/08 13:45:27;;;;;;;7.10;4.38;;;0.70;99.90;;;;;;8228973;28;20030;-77
2023/02/08 13:49:55;;;;;;;15.48;5.00;;;0.70;99.90;;;;;;8230122;28;20031;-77
2023/02/08 13:53:56;;;;;;;14.88;4.28;;;0.60;99.90;;;;;;8230334;28;20022;-78
2023/02/08 13:58:01;;;;;;;6.25;3.50;;;0.60;99.90;;;;;;8230940;28;20410;-77
2023/02/08 14:02:10;;;;;;;8.05;4.65;;;0.50;99.90;;;;;;8230781;28;20027;-77
2023/02/08 14:06:24;;;;;;;;;;;0.50;99.90;;;;;;8243391;28;20027;-78
2023/02/08 14:10:59;;;;;;;7.07;3.47;;;0.40;99.90;;;;;;8232689;28;21007;-79
2023/02/08 14:15:15;;;;;;;5.32;3.63;;;0.40;99.90;;;;;;8234060;28;20062;-80
2023/02/08 14:19:15;;;;;;;7.35;3.33;;;0.50;99.90;;;;;;8240104;28;20054;-78
2023/02/08 14:23:25;;;;;;;11.40;3.67;;;0.40;99.90;;;;;;8248346;28;20026;-77
2023/02/08 14:27:28;;;;;;;8.80;3.83;;;0.50;99.90;;;;;;8247584;28;20023;-79
2023/02/08 14:31:42;;;;;;;5.32;2.33;;;0.40;99.90;;;;;;8235426;28;20025;-79
2023/02/08 14:35:52;;;;;;;4.13;2.50;;;0.40;99.90;;;;;;8226541;28;20455;-78
2023/02/08 14:40:15;;;;;;;5.50;3.08;;;0.40;99.90;;;;;;8229073;28;20023;-80
2023/02/08 14:44:37;;;;;;;7.88;4.00;;;0.30;99.90;;;;;;8228691;28;20073;-79
2023/02/08 14:48:47;;;;;;;8.88;3.75;;;0.30;99.90;;;;;;8226218;28;20046;-80
2023/02/08 14:53:11;;;;;;;10.48;2.70;;;0.30;99.90;;;;;;8228657;28;20108;-79
2023/02/08 14:57:32;;;;;;;2.95;2.13;;;0.30;99.90;;;;;;8225353;28;20050;-80
2023/02/08 15:01:52;;;;;;;5.97;3.38;;;0.20;99.90;;;;;;8228767;28;20030;-79
2023/02/08 15:06:06;;;;;;;7.18;4.18;;;0.10;99.90;;;;;;8229614;28;20019;-79
2023/02/08 15:10:13;;;;;;;6.45;3.60;;;0.00;99.90;;;;;;8229171;28;20031;-78
2023/02/08 15:14:19;;;;;;;9.60;3.92;;;0.00;99.90;;;;;;8227717;28;20395;-80
2023/02/08 15:18:29;;;;;;;11.32;4.75;;;-0.20;99.90;;;;;;8227002;28;20487;-79
2023/02/08 15:22:38;;;;;;;9.38;5.32;;;-0.20;99.90;;;;;;8234242;28;20446;-79
2023/02/08 15:26:44;;;;;;;7.50;2.95;;;-0.20;99.90;;;;;;8230715;28;20417;-79
2023/02/08 15:30:59;;;;;;;6.57;3.65;;;-0.20;99.90;;;;;;8234548;28;20499;-80
2023/02/08 15:35:02;;;;;;;3.08;1.38;;;-0.20;99.90;;;;;;8234436;28;20513;-78
2023/02/08 15:39:25;;;;;;;4.22;3.03;;;-0.20;99.90;;;;;;8234104;28;20139;-78
2023/02/08 15:43:26;;;;;;;1.15;0.65;;;-0.50;99.90;;;;;;8216942;28;20037;-80
2023/02/08 15:47:30;;;;;;;4.95;2.72;;;-0.60;99.90;;;;;;8233665;28;20514;-79
2023/02/08 15:51:32;;;;;;;3.20;2.28;;;-0.80;99.90;;;;;;8234923;28;20044;-79
2023/02/08 15:55:38;;;;;;;9.60;3.28;;;-1.00;99.90;;;;;;8230560;28;20508;-80
2023/02/08 15:59:39;;;;;;;7.63;3.80;;;-1.10;99.90;;;;;;8233501;28;20027;-80
2023/02/08 16:03:39;;;;;;;12.02;5.63;;;-1.10;99.90;;;;;;8233504;28;20023;-80
2023/02/08 16:07:43;;;;;;;13.85;3.92;;;-1.00;99.90;;;;;;8233217;28;20034;-79
2023/02/08 16:11:48;;;;;;;6.85;3.47;;;-1.20;99.90;;;;;;8233349;28;20077;-79
2023/02/08 16:15:52;;;;;;;12.32;6.10;;;-1.30;99.90;;;;;;8233996;28;20019;-79
2023/02/08 16:19:53;;;;;;;7.32;3.55;;;-1.40;99.90;;;;;;8233421;28;20030;-80
2023/02/08 16:23:55;;;;;;;12.68;5.72;;;-1.60;99.90;;;;;;8232665;28;20046;-79
2023/02/08 16:27:56;;;;;;;8.25;4.80;;;-1.60;99.90;;;;;;8234760;28;20400;-79
2023/02/08 16:32:05;;;;;;;2.95;2.03;;;-1.70;99.90;;;;;;8232446;28;20030;-80
2023/02/08 16:36:06;;;;;;;6.88;3.92;;;-2.00;99.90;;;;;;8232948;28;20030;-80
2023/02/08 16:40:34;;;;;;;6.68;3.20;;;-2.10;99.90;;;;;;8232423;28;20035;-80
2023/02/08 16:44:35;;;;;;;13.90;5.50;;;-2.20;99.90;;;;;;8232574;28;20026;-80
2023/02/08 16:48:38;;;;;;;10.68;4.55;;;-2.50;99.90;;;;;;8232272;28;20019;-80
2023/02/08 16:52:39;;;;;;;12.50;5.43;;;-2.60;99.90;;;;;;8231940;28;20086;-80
2023/02/08 16:56:40;;;;;;;12.50;5.03;;;-2.50;99.90;;;;;;8232159;28;20073;-80
2023/02/08 17:00:41;;;;;;;21.90;8.05;;;-2.50;99.90;;;;;;8231396;28;20029;-78
2023/02/08 17:04:41;;;;;;;8.27;4.40;;;-2.60;99.90;;;;;;8230824;28;20014;-78
2023/02/08 17:08:42;;;;;;;11.65;5.20;;;-2.40;99.90;;;;;;8230255;28;20030;-78
2023/02/08 17:12:42;;;;;;;12.98;5.47;;;-2.50;99.90;;;;;;8230633;28;20027;-78
2023/02/08 17:16:43;;;;;;;11.77;5.30;;;-2.70;99.90;;;;;;8229819;28;20022;-77
2023/02/08 17:20:43;;;;;;;15.63;6.35;;;-2.60;99.90;;;;;;8228970;28;20034;-77
2023/02/08 17:24:44;;;;;;;7.68;4.30;;;-2.60;99.90;;;;;;8228566;28;20073;-77
2023/02/08 17:28:45;;;;;;;4.97;2.63;;;-2.70;99.90;;;;;;8223703;28;20019;-78
2023/02/08 17:32:47;;;;;;;9.48;3.00;;;-2.70;99.90;;;;;;8228877;28;20050;-77
2023/02/08 17:36:47;;;;;;;10.35;5.45;;;-2.70;99.90;;;;;;8229137;28;20022;-78
2023/02/08 17:40:48;;;;;;;11.90;4.57;;;-2.80;99.90;;;;;;8229157;28;20026;-76
2023/02/08 17:44:49;;;;;;;9.27;5.32;;;-3.20;99.90;;;;;;8229717;28;20025;-78
2023/02/08 17:48:49;;;;;;;7.88;3.30;;;-3.10;99.90;;;;;;8228317;28;20109;-76
2023/02/08 17:52:50;;;;;;;13.63;5.72;;;-3.00;99.90;;;;;;8229710;28;20023;-78
2023/02/08 17:56:55;;;;;;;4.90;3.08;;;-3.00;99.90;;;;;;8221481;28;20027;-78
2023/02/08 18:00:55;;;;;;;9.85;4.97;;;-3.00;99.90;;;;;;8223407;28;20046;-76
2023/02/08 18:04:56;;;;;;;17.60;7.25;;;-3.00;99.90;;;;;;8228176;28;20027;-78
2023/02/08 18:08:57;;;;;;;11.13;5.40;;;-3.20;99.90;;;;;;8223221;28;20408;-78
2023/02/08 18:12:58;;;;;;;9.45;5.15;;;-3.60;99.90;;;;;;8229508;28;20034;-78
2023/02/08 18:16:58;;;;;;;14.57;6.32;;;-3.60;99.90;;;;;;8227937;28;20500;-77
2023/02/08 18:20:59;;;;;;;13.95;5.45;;;-3.70;99.90;;;;;;8227799;28;20074;-77
2023/02/08 18:24:59;;;;;;;8.68;4.80;;;-3.80;99.90;;;;;;8230142;28;20027;-78
2023/02/08 18:29:01;;;;;;;16.13;7.25;;;-3.70;99.90;;;;;;8228262;28;20029;-77
2023/02/08 18:33:01;;;;;;;14.23;6.10;;;-4.10;99.90;;;;;;8218959;28;20035;-77
2023/02/08 18:37:02;;;;;;;10.77;5.28;;;-4.20;99.90;;;;;;8215437;28;20443;-76
2023/02/08 18:41:10;;;;;;;10.50;4.53;;;-4.40;99.90;;;;;;8226633;28;20031;-77
2023/02/08 18:45:10;;;;;;;10.05;5.07;;;-4.60;99.90;;;;;;8225798;28;20081;-77
2023/02/08 18:49:14;;;;;;;8.77;4.57;;;-4.80;99.90;;;;;;8227912;28;20552;-78
2023/02/08 18:53:15;;;;;;;12.45;5.20;;;-5.10;99.90;;;;;;8227197;28;20185;-77
2023/02/08 18:57:15;;;;;;;11.02;5.38;;;-5.30;99.90;;;;;;8234644;28;20035;-78
2023/02/08 19:01:19;;;;;;;11.57;5.45;;;-5.40;99.90;;;;;;8238580;28;20114;-77
2023/02/08 19:05:19;;;;;;;12.05;4.70;;;-5.50;99.90;;;;;;8239071;28;20023;-77
2023/02/08 19:09:20;;;;;;;7.32;4.32;;;-5.50;99.90;;;;;;8234738;28;20521;-76
2023/02/08 19:13:20;;;;;;;8.23;3.92;;;-5.30;99.90;;;;;;8237939;28;20027;-76
2023/02/08 19:17:21;;;;;;;8.50;4.82;;;-5.30;99.90;;;;;;8236272;28;20593;-78
2023/02/08 19:21:22;;;;;;;5.75;4.20;;;-5.30;99.90;;;;;;8234765;28;20030;-78
2023/02/08 19:25:23;;;;;;;7.53;3.67;;;-5.40;99.90;;;;;;8237276;28;20026;-78
2023/02/08 19:29:23;;;;;;;10.38;5.35;;;-5.40;99.90;;;;;;8236284;28;20027;-78
2023/02/08 19:33:24;;;;;;;8.18;4.45;;;-5.50;99.90;;;;;;8232516;28;20034;-76
2023/02/08 19:37:24;;;;;;;7.70;4.95;;;-5.40;99.90;;;;;;8224968;28;20634;-78
2023/02/08 19:41:26;;;;;;;9.98;4.53;;;-5.40;99.90;;;;;;8228755;28;20042;-76
2023/02/08 19:45:27;;;;;;;11.70;6.05;;;-5.70;99.90;;;;;;8234092;28;20030;-78
2023/02/08 19:49:27;;;;;;;13.27;4.72;;;-5.90;99.90;;;;;;8232112;28;20031;-77
2023/02/08 19:53:28;;;;;;;9.70;4.25;;;-6.00;99.90;;;;;;8236834;28;20023;-78
2023/02/08 19:57:28;;;;;;;9.95;4.35;;;-6.10;99.90;;;;;;8236479;28;20026;-77
2023/02/08 20:01:31;;;;;;;8.88;4.47;;;-6.10;99.90;;;;;;8230286;28;20033;-78
2023/02/08 20:05:34;;;;;;;9.50;5.50;;;-6.10;99.90;;;;;;8226816;28;20085;-78
2023/02/08 20:09:35;;;;;;;11.88;4.60;;;-6.00;99.90;;;;;;8230027;28;20042;-77
2023/02/08 20:13:36;;;;;;;7.93;3.15;;;-6.10;99.90;;;;;;8229642;28;20110;-77
2023/02/08 20:17:37;;;;;;;7.13;3.40;;;-6.30;99.90;;;;;;8229033;28;20053;-77
2023/02/08 20:21:39;;;;;;;11.90;5.00;;;-6.50;99.90;;;;;;8230683;28;20030;-77
2023/02/08 20:25:40;;;;;;;9.38;4.68;;;-6.40;99.90;;;;;;8229108;28;20097;-77
2023/02/08 20:29:40;;;;;;;9.50;3.70;;;-6.50;99.90;;;;;;8217231;28;20074;-78
2023/02/08 20:33:41;;;;;;;11.07;3.60;;;-6.50;99.90;;;;;;8214389;28;20399;-77
2023/02/08 20:37:42;;;;;;;15.40;4.35;;;-6.40;99.90;;;;;;8219022;28;20114;-77
2023/02/08 20:41:43;;;;;;;3.28;2.53;;;-6.30;99.90;;;;;;8229890;28;20031;-77
2023/02/08 20:45:44;;;;;;;7.15;3.10;;;-6.20;99.90;;;;;;8227867;28;20023;-76
2023/02/08 20:49:45;;;;;;;6.82;4.03;;;-6.30;99.90;;;;;;8229693;28;20046;-77
2023/02/08 20:53:47;;;;;;;10.93;5.00;;;-6.40;99.90;;;;;;8228993;28;20089;-77
2023/02/08 20:57:47;;;;;;;11.93;5.63;;;-6.60;99.90;;;;;;8228248;28;20043;-78
2023/02/08 21:01:48;;;;;;;13.98;5.72;;;-6.70;99.90;;;;;;8228611;28;20102;-77
2023/02/08 21:05:48;;;;;;;15.75;7.80;;;-6.90;99.90;;;;;;8220480;28;20431;-76
2023/02/08 21:09:49;;;;;;;8.93;4.20;;;-7.00;99.90;;;;;;8227342;28;20018;-78
2023/02/08 21:13:49;;;;;;;8.75;4.32;;;-7.00;99.90;;;;;;8228718;28;20034;-78
2023/02/08 21:17:50;;;;;;;7.85;3.67;;;-7.10;99.90;;;;;;8227016;28;20035;-76
2023/02/08 21:21:52;;;;;;;11.10;4.93;;;-7.10;99.90;;;;;;8228359;28;20043;-76